sensor_id;sensor_type;location;lat;lon;timestamp;P1;durP1;ratioP1;P2;durP2;ratioP2
69551;SDS011;63774;45.292;11.784;2022-10-31T00:00:58;31.50;;;18.80;;
69551;SDS011;63774;45.292;11.784;2022-10-31T00:03:24;28.30;;;18.60;;
69551;SDS011;63774;45.292;11.784;2022-10-31T00:05:51;29.70;;;18.50;;
69551;SDS011;63774;45.292;11.784;2022-10-31T00:08:17;26.40;;;17.90;;
69551;SDS011;63774;45.292;11.784;2022-10-31T00:10:43;30.70;;;18.20;;
69551;SDS011;63774;45.292;11.784;2022-10-31T00:13:10;29.10;;;18.80;;
69551;SDS011;63774;45.292;11.784;2022-10-31T00:15:38;28.10;;;18.20;;
69551;SDS011;63774;45.292;11.784;2022-10-31T00:18:04;28.50;;;18.70;;
69551;SDS011;63774;45.292;11.784;2022-10-31T00:20:31;27.90;;;18.40;;
69551;SDS011;63774;45.292;11.784;2022-10-31T00:22:59;29.90;;;18.70;;
69551;SDS011;63774;45.292;11.784;2022-10-31T00:25:27;28.40;;;18.30;;
69551;SDS011;63774;45.292;11.784;2022-10-31T00:27:53;27.70;;;18.10;;
69551;SDS011;63774;45.292;11.784;2022-10-31T00:30:19;29.50;;;18.20;;
69551;SDS011;63774;45.292;11.784;2022-10-31T00:32:44;28.20;;;18.20;;
69551;SDS011;63774;45.292;11.784;2022-10-31T00:35:10;27.40;;;18.30;;
69551;SDS011;63774;45.292;11.784;2022-10-31T00:37:36;29.30;;;17.70;;
69551;SDS011;63774;45.292;11.784;2022-10-31T00:40:01;29.30;;;17.90;;
69551;SDS011;63774;45.292;11.784;2022-10-31T00:42:27;27.00;;;17.90;;
69551;SDS011;63774;45.292;11.784;2022-10-31T00:44:52;30.30;;;18.30;;
69551;SDS011;63774;45.292;11.784;2022-10-31T00:47:18;27.40;;;18.60;;
69551;SDS011;63774;45.292;11.784;2022-10-31T00:49:43;29.20;;;18.20;;
69551;SDS011;63774;45.292;11.784;2022-10-31T00:52:09;28.50;;;18.50;;
69551;SDS011;63774;45.292;11.784;2022-10-31T00:54:34;28.00;;;17.70;;
69551;SDS011;63774;45.292;11.784;2022-10-31T00:56:59;29.20;;;18.00;;
69551;SDS011;63774;45.292;11.784;2022-10-31T00:59:25;30.80;;;17.90;;
69551;SDS011;63774;45.292;11.784;2022-10-31T01:01:51;30.50;;;18.00;;
69551;SDS011;63774;45.292;11.784;2022-10-31T01:04:16;28.00;;;19.50;;
69551;SDS011;63774;45.292;11.784;2022-10-31T01:06:41;29.30;;;18.80;;
69551;SDS011;63774;45.292;11.784;2022-10-31T01:09:07;30.20;;;18.60;;
69551;SDS011;63774;45.292;11.784;2022-10-31T01:11:33;30.80;;;19.20;;
69551;SDS011;63774;45.292;11.784;2022-10-31T01:13:58;28.20;;;18.20;;
69551;SDS011;63774;45.292;11.784;2022-10-31T01:16:24;26.00;;;18.10;;
69551;SDS011;63774;45.292;11.784;2022-10-31T01:18:51;24.70;;;17.40;;
69551;SDS011;63774;45.292;11.784;2022-10-31T01:21:19;32.10;;;19.10;;
69551;SDS011;63774;45.292;11.784;2022-10-31T01:23:46;27.20;;;18.70;;
69551;SDS011;63774;45.292;11.784;2022-10-31T01:26:45;32.50;;;19.10;;
69551;SDS011;63774;45.292;11.784;2022-10-31T01:29:06;27.60;;;18.60;;
69551;SDS011;63774;45.292;11.784;2022-10-31T01:31:34;31.30;;;18.90;;
69551;SDS011;63774;45.292;11.784;2022-10-31T01:34:01;27.90;;;19.00;;
69551;SDS011;63774;45.292;11.784;2022-10-31T01:36:28;28.60;;;18.40;;
69551;SDS011;63774;45.292;11.784;2022-10-31T01:38:57;26.80;;;18.50;;
69551;SDS011;63774;45.292;11.784;2022-10-31T01:41:25;27.10;;;18.50;;
69551;SDS011;63774;45.292;11.784;2022-10-31T01:43:54;31.40;;;20.30;;
69551;SDS011;63774;45.292;11.784;2022-10-31T01:46:24;26.90;;;17.30;;
69551;SDS011;63774;45.292;11.784;2022-10-31T01:49:05;27.20;;;18.30;;
69551;SDS011;63774;45.292;11.784;2022-10-31T01:51:38;27.50;;;18.70;;
69551;SDS011;63774;45.292;11.784;2022-10-31T01:54:08;28.90;;;18.20;;
69551;SDS011;63774;45.292;11.784;2022-10-31T01:56:40;27.20;;;17.90;;
69551;SDS011;63774;45.292;11.784;2022-10-31T01:59:11;26.90;;;18.30;;
69551;SDS011;63774;45.292;11.784;2022-10-31T02:01:39;28.70;;;19.00;;
69551;SDS011;63774;45.292;11.784;2022-10-31T02:04:05;24.70;;;17.80;;
69551;SDS011;63774;45.292;11.784;2022-10-31T02:09:05;29.40;;;17.90;;
69551;SDS011;63774;45.292;11.784;2022-10-31T02:11:31;26.60;;;17.50;;
69551;SDS011;63774;45.292;11.784;2022-10-31T02:13:59;24.80;;;17.60;;
69551;SDS011;63774;45.292;11.784;2022-10-31T02:16:26;27.60;;;17.80;;
69551;SDS011;63774;45.292;11.784;2022-10-31T02:18:52;25.60;;;17.90;;
69551;SDS011;63774;45.292;11.784;2022-10-31T02:32:38;26.60;;;18.20;;
69551;SDS011;63774;45.292;11.784;2022-10-31T02:40:26;26.80;;;17.30;;
69551;SDS011;63774;45.292;11.784;2022-10-31T02:42:59;26.30;;;17.20;;
69551;SDS011;63774;45.292;11.784;2022-10-31T02:45:49;24.50;;;16.60;;
69551;SDS011;63774;45.292;11.784;2022-10-31T02:48:24;25.60;;;17.30;;
69551;SDS011;63774;45.292;11.784;2022-10-31T02:50:55;23.20;;;16.60;;
69551;SDS011;63774;45.292;11.784;2022-10-31T02:53:23;25.40;;;17.40;;
69551;SDS011;63774;45.292;11.784;2022-10-31T02:58:40;22.90;;;15.60;;
69551;SDS011;63774;45.292;11.784;2022-10-31T03:04:02;27.80;;;16.50;;
69551;SDS011;63774;45.292;11.784;2022-10-31T03:20:47;22.60;;;15.80;;
69551;SDS011;63774;45.292;11.784;2022-10-31T03:23:19;23.70;;;15.70;;
69551;SDS011;63774;45.292;11.784;2022-10-31T03:25:48;23.10;;;15.70;;
69551;SDS011;63774;45.292;11.784;2022-10-31T03:28:16;24.80;;;16.10;;
69551;SDS011;63774;45.292;11.784;2022-10-31T03:30:45;24.60;;;15.50;;
69551;SDS011;63774;45.292;11.784;2022-10-31T03:33:16;22.40;;;15.60;;
69551;SDS011;63774;45.292;11.784;2022-10-31T03:35:46;22.80;;;15.30;;
69551;SDS011;63774;45.292;11.784;2022-10-31T03:38:15;21.80;;;15.30;;
69551;SDS011;63774;45.292;11.784;2022-10-31T03:40:41;21.00;;;14.20;;
69551;SDS011;63774;45.292;11.784;2022-10-31T03:43:13;23.10;;;15.30;;
69551;SDS011;63774;45.292;11.784;2022-10-31T03:45:45;23.20;;;15.70;;
69551;SDS011;63774;45.292;11.784;2022-10-31T03:48:12;20.40;;;14.30;;
69551;SDS011;63774;45.292;11.784;2022-10-31T03:50:42;23.10;;;15.30;;
69551;SDS011;63774;45.292;11.784;2022-10-31T03:53:14;22.80;;;15.30;;
69551;SDS011;63774;45.292;11.784;2022-10-31T03:55:52;24.40;;;15.80;;
69551;SDS011;63774;45.292;11.784;2022-10-31T03:58:28;23.30;;;15.80;;
69551;SDS011;63774;45.292;11.784;2022-10-31T04:00:59;22.10;;;15.50;;
69551;SDS011;63774;45.292;11.784;2022-10-31T04:03:32;22.50;;;15.00;;
69551;SDS011;63774;45.292;11.784;2022-10-31T04:06:05;21.30;;;14.70;;
69551;SDS011;63774;45.292;11.784;2022-10-31T04:08:33;24.60;;;15.60;;
69551;SDS011;63774;45.292;11.784;2022-10-31T04:11:05;23.50;;;14.40;;
69551;SDS011;63774;45.292;11.784;2022-10-31T04:13:33;22.50;;;15.30;;
69551;SDS011;63774;45.292;11.784;2022-10-31T04:16:01;21.80;;;14.80;;
69551;SDS011;63774;45.292;11.784;2022-10-31T04:18:30;21.70;;;15.30;;
69551;SDS011;63774;45.292;11.784;2022-10-31T04:21:03;21.80;;;15.00;;
69551;SDS011;63774;45.292;11.784;2022-10-31T04:23:30;22.70;;;14.90;;
69551;SDS011;63774;45.292;11.784;2022-10-31T04:25:57;21.40;;;14.90;;
69551;SDS011;63774;45.292;11.784;2022-10-31T04:28:22;20.00;;;14.60;;
69551;SDS011;63774;45.292;11.784;2022-10-31T04:30:48;19.40;;;14.20;;
69551;SDS011;63774;45.292;11.784;2022-10-31T04:33:14;20.70;;;14.10;;
69551;SDS011;63774;45.292;11.784;2022-10-31T04:35:39;20.10;;;14.20;;
69551;SDS011;63774;45.292;11.784;2022-10-31T04:38:05;21.10;;;14.00;;
69551;SDS011;63774;45.292;11.784;2022-10-31T04:40:30;19.60;;;13.80;;
69551;SDS011;63774;45.292;11.784;2022-10-31T04:42:56;18.00;;;13.40;;
69551;SDS011;63774;45.292;11.784;2022-10-31T04:45:21;20.00;;;13.60;;
69551;SDS011;63774;45.292;11.784;2022-10-31T04:47:47;19.10;;;14.00;;
69551;SDS011;63774;45.292;11.784;2022-10-31T04:50:12;17.90;;;13.70;;
69551;SDS011;63774;45.292;11.784;2022-10-31T04:52:39;17.10;;;13.50;;
69551;SDS011;63774;45.292;11.784;2022-10-31T04:55:05;18.60;;;13.90;;
69551;SDS011;63774;45.292;11.784;2022-10-31T04:57:31;16.80;;;13.90;;
69551;SDS011;63774;45.292;11.784;2022-10-31T04:59:56;17.90;;;14.00;;
69551;SDS011;63774;45.292;11.784;2022-10-31T05:02:21;17.90;;;13.60;;
69551;SDS011;63774;45.292;11.784;2022-10-31T05:04:47;18.60;;;13.90;;
69551;SDS011;63774;45.292;11.784;2022-10-31T05:07:12;21.00;;;14.70;;
69551;SDS011;63774;45.292;11.784;2022-10-31T05:09:38;20.00;;;14.80;;
69551;SDS011;63774;45.292;11.784;2022-10-31T05:12:03;20.10;;;15.00;;
69551;SDS011;63774;45.292;11.784;2022-10-31T05:14:28;21.20;;;15.40;;
69551;SDS011;63774;45.292;11.784;2022-10-31T05:16:54;20.30;;;14.60;;
69551;SDS011;63774;45.292;11.784;2022-10-31T05:19:19;21.80;;;15.10;;
69551;SDS011;63774;45.292;11.784;2022-10-31T05:21:45;21.70;;;15.30;;
69551;SDS011;63774;45.292;11.784;2022-10-31T05:24:10;21.20;;;15.20;;
69551;SDS011;63774;45.292;11.784;2022-10-31T05:26:36;19.80;;;14.90;;
69551;SDS011;63774;45.292;11.784;2022-10-31T05:29:01;21.90;;;14.10;;
69551;SDS011;63774;45.292;11.784;2022-10-31T05:31:28;19.30;;;15.20;;
69551;SDS011;63774;45.292;11.784;2022-10-31T05:33:53;18.70;;;14.40;;
69551;SDS011;63774;45.292;11.784;2022-10-31T05:36:19;20.10;;;14.80;;
69551;SDS011;63774;45.292;11.784;2022-10-31T05:38:44;21.10;;;15.50;;
69551;SDS011;63774;45.292;11.784;2022-10-31T05:41:10;22.20;;;14.70;;
69551;SDS011;63774;45.292;11.784;2022-10-31T05:43:35;21.40;;;14.80;;
69551;SDS011;63774;45.292;11.784;2022-10-31T05:46:02;21.60;;;15.00;;
69551;SDS011;63774;45.292;11.784;2022-10-31T05:48:27;20.10;;;14.90;;
69551;SDS011;63774;45.292;11.784;2022-10-31T05:50:53;21.40;;;15.00;;
69551;SDS011;63774;45.292;11.784;2022-10-31T05:53:18;19.50;;;14.90;;
69551;SDS011;63774;45.292;11.784;2022-10-31T05:55:44;21.40;;;14.70;;
69551;SDS011;63774;45.292;11.784;2022-10-31T05:58:10;20.30;;;15.10;;
69551;SDS011;63774;45.292;11.784;2022-10-31T06:00:35;21.40;;;15.60;;
69551;SDS011;63774;45.292;11.784;2022-10-31T06:03:02;22.20;;;15.30;;
69551;SDS011;63774;45.292;11.784;2022-10-31T06:05:29;20.40;;;14.50;;
69551;SDS011;63774;45.292;11.784;2022-10-31T06:07:55;20.00;;;15.00;;
69551;SDS011;63774;45.292;11.784;2022-10-31T06:10:21;25.00;;;16.10;;
69551;SDS011;63774;45.292;11.784;2022-10-31T06:12:47;22.20;;;15.00;;
69551;SDS011;63774;45.292;11.784;2022-10-31T06:15:13;20.10;;;14.70;;
69551;SDS011;63774;45.292;11.784;2022-10-31T06:17:40;22.60;;;15.20;;
69551;SDS011;63774;45.292;11.784;2022-10-31T06:20:05;20.20;;;14.60;;
69551;SDS011;63774;45.292;11.784;2022-10-31T06:22:31;20.90;;;14.90;;
69551;SDS011;63774;45.292;11.784;2022-10-31T06:24:57;19.90;;;14.80;;
69551;SDS011;63774;45.292;11.784;2022-10-31T06:27:22;21.70;;;15.00;;
69551;SDS011;63774;45.292;11.784;2022-10-31T06:29:48;21.30;;;14.90;;
69551;SDS011;63774;45.292;11.784;2022-10-31T06:32:13;21.40;;;15.00;;
69551;SDS011;63774;45.292;11.784;2022-10-31T06:34:40;18.60;;;14.10;;
69551;SDS011;63774;45.292;11.784;2022-10-31T06:37:06;21.30;;;14.70;;
69551;SDS011;63774;45.292;11.784;2022-10-31T06:39:33;18.90;;;14.10;;
69551;SDS011;63774;45.292;11.784;2022-10-31T06:41:58;17.80;;;13.40;;
69551;SDS011;63774;45.292;11.784;2022-10-31T06:44:24;17.80;;;13.40;;
69551;SDS011;63774;45.292;11.784;2022-10-31T06:46:49;19.00;;;13.20;;
69551;SDS011;63774;45.292;11.784;2022-10-31T06:49:15;17.50;;;12.90;;
69551;SDS011;63774;45.292;11.784;2022-10-31T06:51:40;16.40;;;11.90;;
69551;SDS011;63774;45.292;11.784;2022-10-31T06:54:06;16.90;;;12.70;;
69551;SDS011;63774;45.292;11.784;2022-10-31T06:56:32;16.70;;;12.00;;
69551;SDS011;63774;45.292;11.784;2022-10-31T06:58:57;14.90;;;12.20;;
69551;SDS011;63774;45.292;11.784;2022-10-31T07:01:23;15.80;;;12.70;;
69551;SDS011;63774;45.292;11.784;2022-10-31T07:03:48;18.80;;;12.70;;
69551;SDS011;63774;45.292;11.784;2022-10-31T07:06:13;17.00;;;13.00;;
69551;SDS011;63774;45.292;11.784;2022-10-31T07:08:39;17.30;;;12.50;;
69551;SDS011;63774;45.292;11.784;2022-10-31T07:11:04;15.80;;;12.20;;
69551;SDS011;63774;45.292;11.784;2022-10-31T07:13:30;18.70;;;13.20;;
69551;SDS011;63774;45.292;11.784;2022-10-31T07:15:59;15.90;;;12.10;;
69551;SDS011;63774;45.292;11.784;2022-10-31T07:18:25;18.70;;;12.60;;
69551;SDS011;63774;45.292;11.784;2022-10-31T07:20:52;17.30;;;13.10;;
69551;SDS011;63774;45.292;11.784;2022-10-31T07:23:18;17.90;;;13.70;;
69551;SDS011;63774;45.292;11.784;2022-10-31T07:25:44;18.30;;;13.70;;
69551;SDS011;63774;45.292;11.784;2022-10-31T07:28:09;18.90;;;13.90;;
69551;SDS011;63774;45.292;11.784;2022-10-31T07:30:35;19.10;;;14.20;;
69551;SDS011;63774;45.292;11.784;2022-10-31T07:33:02;20.20;;;14.30;;
69551;SDS011;63774;45.292;11.784;2022-10-31T07:35:28;18.50;;;14.70;;
69551;SDS011;63774;45.292;11.784;2022-10-31T07:37:54;21.10;;;14.90;;
69551;SDS011;63774;45.292;11.784;2022-10-31T07:40:20;20.80;;;15.40;;
69551;SDS011;63774;45.292;11.784;2022-10-31T07:42:47;20.40;;;15.40;;
69551;SDS011;63774;45.292;11.784;2022-10-31T07:45:16;19.70;;;14.90;;
69551;SDS011;63774;45.292;11.784;2022-10-31T07:47:46;24.30;;;16.50;;
69551;SDS011;63774;45.292;11.784;2022-10-31T07:50:17;25.30;;;16.00;;
69551;SDS011;63774;45.292;11.784;2022-10-31T07:52:44;23.10;;;16.70;;
69551;SDS011;63774;45.292;11.784;2022-10-31T07:55:10;24.20;;;15.70;;
69551;SDS011;63774;45.292;11.784;2022-10-31T07:57:36;24.90;;;16.70;;
69551;SDS011;63774;45.292;11.784;2022-10-31T08:00:03;27.80;;;17.70;;
69551;SDS011;63774;45.292;11.784;2022-10-31T08:02:29;25.70;;;17.00;;
69551;SDS011;63774;45.292;11.784;2022-10-31T08:04:55;23.80;;;16.70;;
69551;SDS011;63774;45.292;11.784;2022-10-31T08:07:20;26.70;;;18.00;;
69551;SDS011;63774;45.292;11.784;2022-10-31T08:09:46;27.30;;;17.50;;
69551;SDS011;63774;45.292;11.784;2022-10-31T08:12:12;24.80;;;17.30;;
69551;SDS011;63774;45.292;11.784;2022-10-31T08:14:37;26.60;;;17.30;;
69551;SDS011;63774;45.292;11.784;2022-10-31T08:17:03;25.90;;;18.00;;
69551;SDS011;63774;45.292;11.784;2022-10-31T08:19:28;28.40;;;18.30;;
69551;SDS011;63774;45.292;11.784;2022-10-31T08:21:53;24.20;;;17.60;;
69551;SDS011;63774;45.292;11.784;2022-10-31T08:24:20;25.10;;;18.10;;
69551;SDS011;63774;45.292;11.784;2022-10-31T08:26:46;26.60;;;18.30;;
69551;SDS011;63774;45.292;11.784;2022-10-31T08:29:11;27.40;;;18.80;;
69551;SDS011;63774;45.292;11.784;2022-10-31T08:31:37;25.70;;;18.50;;
69551;SDS011;63774;45.292;11.784;2022-10-31T08:34:03;26.30;;;18.50;;
69551;SDS011;63774;45.292;11.784;2022-10-31T08:36:29;26.60;;;18.70;;
69551;SDS011;63774;45.292;11.784;2022-10-31T08:38:54;29.10;;;19.40;;
69551;SDS011;63774;45.292;11.784;2022-10-31T08:41:20;29.80;;;20.00;;
69551;SDS011;63774;45.292;11.784;2022-10-31T08:43:46;28.20;;;19.40;;
69551;SDS011;63774;45.292;11.784;2022-10-31T08:46:12;29.50;;;20.00;;
69551;SDS011;63774;45.292;11.784;2022-10-31T08:48:38;28.50;;;19.10;;
69551;SDS011;63774;45.292;11.784;2022-10-31T08:51:03;29.80;;;20.00;;
69551;SDS011;63774;45.292;11.784;2022-10-31T08:53:29;32.70;;;21.00;;
69551;SDS011;63774;45.292;11.784;2022-10-31T08:55:55;30.20;;;21.20;;
69551;SDS011;63774;45.292;11.784;2022-10-31T08:58:21;33.60;;;21.20;;
69551;SDS011;63774;45.292;11.784;2022-10-31T09:00:49;33.70;;;21.40;;
69551;SDS011;63774;45.292;11.784;2022-10-31T09:03:34;31.90;;;21.00;;
69551;SDS011;63774;45.292;11.784;2022-10-31T09:06:00;33.20;;;21.00;;
69551;SDS011;63774;45.292;11.784;2022-10-31T09:08:31;34.90;;;21.20;;
69551;SDS011;63774;45.292;11.784;2022-10-31T09:10:58;31.80;;;21.20;;
69551;SDS011;63774;45.292;11.784;2022-10-31T09:13:24;31.70;;;20.20;;
69551;SDS011;63774;45.292;11.784;2022-10-31T09:15:50;38.20;;;21.50;;
69551;SDS011;63774;45.292;11.784;2022-10-31T09:18:16;33.10;;;22.00;;
69551;SDS011;63774;45.292;11.784;2022-10-31T09:20:44;34.50;;;20.80;;
69551;SDS011;63774;45.292;11.784;2022-10-31T09:23:15;31.40;;;21.50;;
69551;SDS011;63774;45.292;11.784;2022-10-31T09:25:42;33.00;;;21.80;;
69551;SDS011;63774;45.292;11.784;2022-10-31T09:28:10;31.10;;;20.60;;
69551;SDS011;63774;45.292;11.784;2022-10-31T09:30:37;32.50;;;21.10;;
69551;SDS011;63774;45.292;11.784;2022-10-31T09:33:03;31.10;;;20.10;;
69551;SDS011;63774;45.292;11.784;2022-10-31T09:35:31;30.10;;;20.00;;
69551;SDS011;63774;45.292;11.784;2022-10-31T09:37:57;34.60;;;21.10;;
69551;SDS011;63774;45.292;11.784;2022-10-31T09:40:31;33.10;;;20.80;;
69551;SDS011;63774;45.292;11.784;2022-10-31T09:45:37;36.30;;;22.30;;
69551;SDS011;63774;45.292;11.784;2022-10-31T09:50:48;33.00;;;21.80;;
69551;SDS011;63774;45.292;11.784;2022-10-31T09:53:27;35.80;;;22.10;;
69551;SDS011;63774;45.292;11.784;2022-10-31T09:55:54;35.30;;;22.70;;
69551;SDS011;63774;45.292;11.784;2022-10-31T09:58:20;39.60;;;22.50;;
69551;SDS011;63774;45.292;11.784;2022-10-31T10:00:49;35.20;;;22.00;;
69551;SDS011;63774;45.292;11.784;2022-10-31T10:06:27;36.30;;;22.10;;
69551;SDS011;63774;45.292;11.784;2022-10-31T10:08:55;33.50;;;21.90;;
69551;SDS011;63774;45.292;11.784;2022-10-31T10:32:50;31.40;;;19.80;;
69551;SDS011;63774;45.292;11.784;2022-10-31T10:35:30;35.20;;;20.90;;
69551;SDS011;63774;45.292;11.784;2022-10-31T10:40:53;37.20;;;20.60;;
69551;SDS011;63774;45.292;11.784;2022-10-31T10:43:22;33.40;;;20.10;;
69551;SDS011;63774;45.292;11.784;2022-10-31T10:51:49;29.10;;;19.00;;
69551;SDS011;63774;45.292;11.784;2022-10-31T10:59:30;32.00;;;19.10;;
69551;SDS011;63774;45.292;11.784;2022-10-31T11:01:56;30.90;;;19.50;;
69551;SDS011;63774;45.292;11.784;2022-10-31T11:07:00;30.90;;;18.40;;
69551;SDS011;63774;45.292;11.784;2022-10-31T11:09:26;31.50;;;18.90;;
69551;SDS011;63774;45.292;11.784;2022-10-31T11:11:51;26.70;;;18.40;;
69551;SDS011;63774;45.292;11.784;2022-10-31T11:14:18;30.30;;;18.30;;
69551;SDS011;63774;45.292;11.784;2022-10-31T11:16:48;33.70;;;18.80;;
69551;SDS011;63774;45.292;11.784;2022-10-31T11:19:21;29.80;;;18.70;;
69551;SDS011;63774;45.292;11.784;2022-10-31T11:21:51;30.80;;;19.00;;
69551;SDS011;63774;45.292;11.784;2022-10-31T11:24:18;33.40;;;19.40;;
69551;SDS011;63774;45.292;11.784;2022-10-31T11:26:46;30.50;;;19.70;;
69551;SDS011;63774;45.292;11.784;2022-10-31T11:29:20;32.30;;;20.20;;
69551;SDS011;63774;45.292;11.784;2022-10-31T11:31:50;34.30;;;20.60;;
69551;SDS011;63774;45.292;11.784;2022-10-31T11:34:36;31.20;;;19.50;;
69551;SDS011;63774;45.292;11.784;2022-10-31T11:37:17;29.20;;;18.80;;
69551;SDS011;63774;45.292;11.784;2022-10-31T11:39:52;26.30;;;17.20;;
69551;SDS011;63774;45.292;11.784;2022-10-31T11:42:21;25.80;;;16.80;;
69551;SDS011;63774;45.292;11.784;2022-10-31T11:44:48;27.90;;;16.90;;
69551;SDS011;63774;45.292;11.784;2022-10-31T11:47:16;26.60;;;16.30;;
69551;SDS011;63774;45.292;11.784;2022-10-31T11:49:46;26.30;;;15.90;;
69551;SDS011;63774;45.292;11.784;2022-10-31T11:52:17;25.70;;;15.40;;
69551;SDS011;63774;45.292;11.784;2022-10-31T11:54:51;25.00;;;14.80;;
69551;SDS011;63774;45.292;11.784;2022-10-31T11:57:28;25.90;;;16.00;;
69551;SDS011;63774;45.292;11.784;2022-10-31T11:59:59;27.00;;;15.40;;
69551;SDS011;63774;45.292;11.784;2022-10-31T12:02:26;23.50;;;15.30;;
69551;SDS011;63774;45.292;11.784;2022-10-31T12:04:57;24.70;;;15.30;;
69551;SDS011;63774;45.292;11.784;2022-10-31T12:07:45;26.30;;;15.00;;
69551;SDS011;63774;45.292;11.784;2022-10-31T12:10:11;25.20;;;15.70;;
69551;SDS011;63774;45.292;11.784;2022-10-31T12:15:29;24.50;;;15.50;;
69551;SDS011;63774;45.292;11.784;2022-10-31T12:18:08;27.60;;;15.40;;
69551;SDS011;63774;45.292;11.784;2022-10-31T12:23:32;25.20;;;15.20;;
69551;SDS011;63774;45.292;11.784;2022-10-31T12:44:06;23.40;;;14.80;;
69551;SDS011;63774;45.292;11.784;2022-10-31T12:49:30;27.00;;;16.20;;
69551;SDS011;63774;45.292;11.784;2022-10-31T12:57:42;27.20;;;16.20;;
69551;SDS011;63774;45.292;11.784;2022-10-31T13:00:13;31.90;;;17.00;;
69551;SDS011;63774;45.292;11.784;2022-10-31T13:02:56;26.00;;;16.50;;
69551;SDS011;63774;45.292;11.784;2022-10-31T13:11:09;26.10;;;16.00;;
69551;SDS011;63774;45.292;11.784;2022-10-31T13:16:29;27.40;;;15.90;;
69551;SDS011;63774;45.292;11.784;2022-10-31T13:19:01;27.80;;;16.00;;
69551;SDS011;63774;45.292;11.784;2022-10-31T13:21:53;28.50;;;16.10;;
69551;SDS011;63774;45.292;11.784;2022-10-31T13:24:22;28.30;;;16.10;;
69551;SDS011;63774;45.292;11.784;2022-10-31T13:26:56;28.40;;;16.50;;
69551;SDS011;63774;45.292;11.784;2022-10-31T13:32:04;28.40;;;16.70;;
69551;SDS011;63774;45.292;11.784;2022-10-31T13:34:34;28.70;;;16.60;;
69551;SDS011;63774;45.292;11.784;2022-10-31T13:45:08;26.70;;;14.30;;
69551;SDS011;63774;45.292;11.784;2022-10-31T13:47:41;27.10;;;15.20;;
69551;SDS011;63774;45.292;11.784;2022-10-31T13:52:50;27.50;;;14.80;;
69551;SDS011;63774;45.292;11.784;2022-10-31T13:55:35;27.50;;;14.40;;
69551;SDS011;63774;45.292;11.784;2022-10-31T13:58:05;27.30;;;15.50;;
69551;SDS011;63774;45.292;11.784;2022-10-31T14:00:45;27.90;;;14.00;;
69551;SDS011;63774;45.292;11.784;2022-10-31T14:03:18;27.00;;;14.00;;
69551;SDS011;63774;45.292;11.784;2022-10-31T14:05:51;28.70;;;14.50;;
69551;SDS011;63774;45.292;11.784;2022-10-31T14:08:18;31.40;;;14.30;;
69551;SDS011;63774;45.292;11.784;2022-10-31T14:10:48;27.50;;;13.40;;
69551;SDS011;63774;45.292;11.784;2022-10-31T14:13:33;23.50;;;12.60;;
69551;SDS011;63774;45.292;11.784;2022-10-31T14:16:24;28.40;;;13.30;;
69551;SDS011;63774;45.292;11.784;2022-10-31T14:26:53;25.80;;;13.30;;
69551;SDS011;63774;45.292;11.784;2022-10-31T14:31:55;22.10;;;12.30;;
69551;SDS011;63774;45.292;11.784;2022-10-31T14:34:31;23.00;;;12.20;;
69551;SDS011;63774;45.292;11.784;2022-10-31T14:45:17;26.70;;;12.40;;
69551;SDS011;63774;45.292;11.784;2022-10-31T14:51:02;25.90;;;11.90;;
69551;SDS011;63774;45.292;11.784;2022-10-31T14:53:44;26.20;;;11.70;;
69551;SDS011;63774;45.292;11.784;2022-10-31T14:56:14;21.80;;;11.00;;
69551;SDS011;63774;45.292;11.784;2022-10-31T14:58:45;19.00;;;10.00;;
69551;SDS011;63774;45.292;11.784;2022-10-31T15:01:21;20.10;;;10.90;;
69551;SDS011;63774;45.292;11.784;2022-10-31T15:03:49;22.40;;;10.40;;
69551;SDS011;63774;45.292;11.784;2022-10-31T15:06:17;20.50;;;10.50;;
69551;SDS011;63774;45.292;11.784;2022-10-31T15:08:47;20.10;;;10.20;;
69551;SDS011;63774;45.292;11.784;2022-10-31T15:11:18;21.60;;;10.70;;
69551;SDS011;63774;45.292;11.784;2022-10-31T15:13:49;19.40;;;9.80;;
69551;SDS011;63774;45.292;11.784;2022-10-31T15:16:16;20.40;;;9.60;;
69551;SDS011;63774;45.292;11.784;2022-10-31T15:18:48;20.50;;;9.30;;
69551;SDS011;63774;45.292;11.784;2022-10-31T15:21:26;16.80;;;8.90;;
69551;SDS011;63774;45.292;11.784;2022-10-31T15:23:54;15.60;;;8.80;;
69551;SDS011;63774;45.292;11.784;2022-10-31T15:26:23;20.50;;;8.80;;
69551;SDS011;63774;45.292;11.784;2022-10-31T15:29:02;16.20;;;9.10;;
69551;SDS011;63774;45.292;11.784;2022-10-31T15:31:36;16.50;;;8.70;;
69551;SDS011;63774;45.292;11.784;2022-10-31T15:34:06;19.60;;;8.40;;
69551;SDS011;63774;45.292;11.784;2022-10-31T15:36:47;15.40;;;8.40;;
69551;SDS011;63774;45.292;11.784;2022-10-31T15:39:14;16.50;;;8.10;;
69551;SDS011;63774;45.292;11.784;2022-10-31T15:44:36;19.20;;;8.60;;
69551;SDS011;63774;45.292;11.784;2022-10-31T15:47:11;18.40;;;8.00;;
69551;SDS011;63774;45.292;11.784;2022-10-31T15:49:46;18.40;;;7.30;;
69551;SDS011;63774;45.292;11.784;2022-10-31T15:52:18;14.20;;;7.70;;
69551;SDS011;63774;45.292;11.784;2022-10-31T15:55:18;17.00;;;8.20;;
69551;SDS011;63774;45.292;11.784;2022-10-31T15:57:47;13.60;;;7.10;;
69551;SDS011;63774;45.292;11.784;2022-10-31T16:00:22;14.50;;;7.20;;
69551;SDS011;63774;45.292;11.784;2022-10-31T16:05:43;14.20;;;6.90;;
69551;SDS011;63774;45.292;11.784;2022-10-31T16:08:24;13.40;;;6.70;;
69551;SDS011;63774;45.292;11.784;2022-10-31T16:10:53;14.80;;;7.20;;
69551;SDS011;63774;45.292;11.784;2022-10-31T16:13:21;14.30;;;7.10;;
69551;SDS011;63774;45.292;11.784;2022-10-31T16:16:02;15.20;;;6.80;;
69551;SDS011;63774;45.292;11.784;2022-10-31T16:18:38;14.10;;;6.80;;
69551;SDS011;63774;45.292;11.784;2022-10-31T16:21:06;14.00;;;7.40;;
69551;SDS011;63774;45.292;11.784;2022-10-31T16:23:34;16.20;;;7.40;;
69551;SDS011;63774;45.292;11.784;2022-10-31T16:26:05;15.90;;;7.10;;
69551;SDS011;63774;45.292;11.784;2022-10-31T16:28:31;18.00;;;7.40;;
69551;SDS011;63774;45.292;11.784;2022-10-31T16:30:58;16.00;;;8.20;;
69551;SDS011;63774;45.292;11.784;2022-10-31T16:33:31;15.10;;;7.30;;
69551;SDS011;63774;45.292;11.784;2022-10-31T16:36:00;13.30;;;7.40;;
69551;SDS011;63774;45.292;11.784;2022-10-31T16:38:27;13.80;;;7.70;;
69551;SDS011;63774;45.292;11.784;2022-10-31T16:40:53;17.30;;;8.00;;
69551;SDS011;63774;45.292;11.784;2022-10-31T16:43:19;17.50;;;7.30;;
69551;SDS011;63774;45.292;11.784;2022-10-31T16:45:48;15.80;;;8.00;;
69551;SDS011;63774;45.292;11.784;2022-10-31T16:48:19;17.90;;;7.40;;
69551;SDS011;63774;45.292;11.784;2022-10-31T16:50:47;16.50;;;7.00;;
69551;SDS011;63774;45.292;11.784;2022-10-31T16:53:13;13.90;;;7.20;;
69551;SDS011;63774;45.292;11.784;2022-10-31T16:55:44;17.70;;;8.00;;
69551;SDS011;63774;45.292;11.784;2022-10-31T16:58:19;16.40;;;7.50;;
69551;SDS011;63774;45.292;11.784;2022-10-31T17:00:48;16.00;;;7.50;;
69551;SDS011;63774;45.292;11.784;2022-10-31T17:03:14;18.80;;;8.30;;
69551;SDS011;63774;45.292;11.784;2022-10-31T17:05:39;17.30;;;8.10;;
69551;SDS011;63774;45.292;11.784;2022-10-31T17:08:05;17.70;;;8.30;;